sensor_id;sensor_type;location;lat;lon;timestamp;P1;durP1;ratioP1;P2;durP2;ratioP2
20535;SDS011;10426;49.420;8.390;2023-06-22T00:01:22;4.60;;;4.30;;
20535;SDS011;10426;49.420;8.390;2023-06-22T00:03:49;4.88;;;4.38;;
20535;SDS011;10426;49.420;8.390;2023-06-22T00:06:15;5.15;;;4.53;;
20535;SDS011;10426;49.420;8.390;2023-06-22T00:08:42;4.60;;;4.30;;
20535;SDS011;10426;49.420;8.390;2023-06-22T00:11:08;4.82;;;4.25;;
20535;SDS011;10426;49.420;8.390;2023-06-22T00:13:35;4.75;;;4.40;;
20535;SDS011;10426;49.420;8.390;2023-06-22T00:16:03;4.65;;;4.25;;
20535;SDS011;10426;49.420;8.390;2023-06-22T00:18:30;8.17;;;5.83;;
20535;SDS011;10426;49.420;8.390;2023-06-22T00:20:57;5.53;;;5.03;;
20535;SDS011;10426;49.420;8.390;2023-06-22T00:23:24;5.00;;;4.60;;
20535;SDS011;10426;49.420;8.390;2023-06-22T00:25:51;5.55;;;5.00;;
20535;SDS011;10426;49.420;8.390;2023-06-22T00:28:17;6.10;;;5.50;;
20535;SDS011;10426;49.420;8.390;2023-06-22T00:30:44;6.72;;;5.70;;
20535;SDS011;10426;49.420;8.390;2023-06-22T00:33:12;6.63;;;5.43;;
20535;SDS011;10426;49.420;8.390;2023-06-22T00:35:38;5.50;;;5.00;;
20535;SDS011;10426;49.420;8.390;2023-06-22T00:38:06;5.80;;;5.30;;
20535;SDS011;10426;49.420;8.390;2023-06-22T00:40:33;5.50;;;5.10;;
20535;SDS011;10426;49.420;8.390;2023-06-22T00:43:00;5.60;;;5.10;;
20535;SDS011;10426;49.420;8.390;2023-06-22T00:45:27;4.30;;;4.00;;
20535;SDS011;10426;49.420;8.390;2023-06-22T00:47:55;9.32;;;5.90;;
20535;SDS011;10426;49.420;8.390;2023-06-22T00:50:24;8.55;;;5.80;;
20535;SDS011;10426;49.420;8.390;2023-06-22T00:52:51;10.27;;;5.22;;
20535;SDS011;10426;49.420;8.390;2023-06-22T00:55:18;7.82;;;5.20;;
20535;SDS011;10426;49.420;8.390;2023-06-22T00:57:46;5.20;;;4.70;;
20535;SDS011;10426;49.420;8.390;2023-06-22T01:00:13;5.47;;;4.97;;
20535;SDS011;10426;49.420;8.390;2023-06-22T01:19:20;7.25;;;5.68;;
20535;SDS011;10426;49.420;8.390;2023-06-22T01:21:49;6.38;;;5.88;;
20535;SDS011;10426;49.420;8.390;2023-06-22T01:24:18;6.60;;;5.90;;
20535;SDS011;10426;49.420;8.390;2023-06-22T01:26:51;6.80;;;6.10;;
20535;SDS011;10426;49.420;8.390;2023-06-22T01:29:21;6.45;;;5.95;;
20535;SDS011;10426;49.420;8.390;2023-06-22T01:31:49;6.95;;;6.35;;
20535;SDS011;10426;49.420;8.390;2023-06-22T01:34:16;6.67;;;6.17;;
20535;SDS011;10426;49.420;8.390;2023-06-22T01:36:43;7.18;;;6.47;;
20535;SDS011;10426;49.420;8.390;2023-06-22T01:39:10;6.82;;;6.15;;
20535;SDS011;10426;49.420;8.390;2023-06-22T01:41:37;6.85;;;6.32;;
20535;SDS011;10426;49.420;8.390;2023-06-22T01:44:05;7.28;;;6.38;;
20535;SDS011;10426;49.420;8.390;2023-06-22T01:46:33;7.17;;;6.57;;
20535;SDS011;10426;49.420;8.390;2023-06-22T01:49:01;6.93;;;6.30;;
20535;SDS011;10426;49.420;8.390;2023-06-22T01:51:28;8.20;;;6.40;;
20535;SDS011;10426;49.420;8.390;2023-06-22T01:53:54;7.30;;;6.47;;
20535;SDS011;10426;49.420;8.390;2023-06-22T01:56:21;7.15;;;6.45;;
20535;SDS011;10426;49.420;8.390;2023-06-22T01:58:48;8.30;;;6.68;;
20535;SDS011;10426;49.420;8.390;2023-06-22T02:01:17;7.47;;;6.78;;
20535;SDS011;10426;49.420;8.390;2023-06-22T02:03:47;7.32;;;6.72;;
20535;SDS011;10426;49.420;8.390;2023-06-22T02:06:16;7.40;;;6.70;;
20535;SDS011;10426;49.420;8.390;2023-06-22T02:08:46;7.30;;;6.40;;
20535;SDS011;10426;49.420;8.390;2023-06-22T02:11:14;9.95;;;6.82;;
20535;SDS011;10426;49.420;8.390;2023-06-22T02:13:41;7.53;;;6.80;;
20535;SDS011;10426;49.420;8.390;2023-06-22T02:16:08;8.48;;;6.85;;
20535;SDS011;10426;49.420;8.390;2023-06-22T02:18:35;7.25;;;6.65;;
20535;SDS011;10426;49.420;8.390;2023-06-22T02:21:03;8.00;;;7.20;;
20535;SDS011;10426;49.420;8.390;2023-06-22T02:23:30;7.75;;;7.15;;
20535;SDS011;10426;49.420;8.390;2023-06-22T02:25:58;7.75;;;7.07;;
20535;SDS011;10426;49.420;8.390;2023-06-22T02:28:25;8.18;;;7.55;;
20535;SDS011;10426;49.420;8.390;2023-06-22T02:30:51;7.95;;;7.20;;
20535;SDS011;10426;49.420;8.390;2023-06-22T02:33:18;7.93;;;7.10;;
20535;SDS011;10426;49.420;8.390;2023-06-22T02:35:45;7.60;;;6.90;;
20535;SDS011;10426;49.420;8.390;2023-06-22T02:38:15;7.55;;;6.85;;
20535;SDS011;10426;49.420;8.390;2023-06-22T02:40:42;8.00;;;7.30;;
20535;SDS011;10426;49.420;8.390;2023-06-22T02:43:09;7.70;;;7.00;;
20535;SDS011;10426;49.420;8.390;2023-06-22T02:45:36;8.30;;;7.50;;
20535;SDS011;10426;49.420;8.390;2023-06-22T02:48:03;7.30;;;6.67;;
20535;SDS011;10426;49.420;8.390;2023-06-22T02:50:29;8.07;;;7.38;;
20535;SDS011;10426;49.420;8.390;2023-06-22T02:52:56;8.50;;;7.80;;
20535;SDS011;10426;49.420;8.390;2023-06-22T02:55:25;8.60;;;7.70;;
20535;SDS011;10426;49.420;8.390;2023-06-22T02:57:51;8.90;;;8.02;;
20535;SDS011;10426;49.420;8.390;2023-06-22T03:00:18;9.65;;;8.18;;
20535;SDS011;10426;49.420;8.390;2023-06-22T03:02:45;9.77;;;8.15;;
20535;SDS011;10426;49.420;8.390;2023-06-22T03:05:12;9.60;;;8.80;;
20535;SDS011;10426;49.420;8.390;2023-06-22T03:07:40;9.32;;;8.50;;
20535;SDS011;10426;49.420;8.390;2023-06-22T03:10:07;9.40;;;8.55;;
20535;SDS011;10426;49.420;8.390;2023-06-22T03:12:36;10.20;;;8.15;;
20535;SDS011;10426;49.420;8.390;2023-06-22T03:15:03;8.20;;;7.32;;
20535;SDS011;10426;49.420;8.390;2023-06-22T03:17:30;8.07;;;7.38;;
20535;SDS011;10426;49.420;8.390;2023-06-22T03:19:56;7.63;;;6.88;;
20535;SDS011;10426;49.420;8.390;2023-06-22T03:22:23;8.13;;;7.30;;
20535;SDS011;10426;49.420;8.390;2023-06-22T03:24:49;7.80;;;7.10;;
20535;SDS011;10426;49.420;8.390;2023-06-22T03:27:16;7.97;;;7.30;;
20535;SDS011;10426;49.420;8.390;2023-06-22T03:29:44;8.20;;;7.60;;
20535;SDS011;10426;49.420;8.390;2023-06-22T03:32:11;7.63;;;7.03;;
20535;SDS011;10426;49.420;8.390;2023-06-22T03:34:37;8.15;;;7.45;;
20535;SDS011;10426;49.420;8.390;2023-06-22T03:37:04;8.97;;;8.07;;
20535;SDS011;10426;49.420;8.390;2023-06-22T03:39:31;8.75;;;7.85;;
20535;SDS011;10426;49.420;8.390;2023-06-22T03:41:58;9.85;;;8.60;;
20535;SDS011;10426;49.420;8.390;2023-06-22T03:44:24;8.60;;;7.75;;
20535;SDS011;10426;49.420;8.390;2023-06-22T03:46:52;9.55;;;8.75;;
20535;SDS011;10426;49.420;8.390;2023-06-22T03:49:19;8.65;;;7.90;;
20535;SDS011;10426;49.420;8.390;2023-06-22T03:51:46;8.73;;;8.10;;
20535;SDS011;10426;49.420;8.390;2023-06-22T03:54:12;9.65;;;8.75;;
20535;SDS011;10426;49.420;8.390;2023-06-22T03:56:39;10.15;;;9.25;;
20535;SDS011;10426;49.420;8.390;2023-06-22T03:59:05;10.48;;;8.48;;
20535;SDS011;10426;49.420;8.390;2023-06-22T04:01:32;9.57;;;8.77;;
20535;SDS011;10426;49.420;8.390;2023-06-22T04:04:00;9.43;;;8.60;;
20535;SDS011;10426;49.420;8.390;2023-06-22T04:06:26;9.57;;;8.57;;
20535;SDS011;10426;49.420;8.390;2023-06-22T04:08:53;11.30;;;10.07;;
20535;SDS011;10426;49.420;8.390;2023-06-22T04:11:20;9.85;;;9.00;;
20535;SDS011;10426;49.420;8.390;2023-06-22T04:13:46;9.38;;;8.40;;
20535;SDS011;10426;49.420;8.390;2023-06-22T04:16:14;10.35;;;9.35;;
20535;SDS011;10426;49.420;8.390;2023-06-22T04:18:40;10.45;;;9.35;;
20535;SDS011;10426;49.420;8.390;2023-06-22T04:21:09;10.90;;;9.40;;
20535;SDS011;10426;49.420;8.390;2023-06-22T04:23:36;9.63;;;8.73;;
20535;SDS011;10426;49.420;8.390;2023-06-22T04:26:02;10.65;;;9.68;;
20535;SDS011;10426;49.420;8.390;2023-06-22T04:28:29;10.10;;;9.10;;
20535;SDS011;10426;49.420;8.390;2023-06-22T04:31:00;8.93;;;8.20;;
20535;SDS011;10426;49.420;8.390;2023-06-22T04:33:27;8.75;;;7.95;;
20535;SDS011;10426;49.420;8.390;2023-06-22T04:35:54;9.07;;;7.60;;
20535;SDS011;10426;49.420;8.390;2023-06-22T04:38:23;8.75;;;8.02;;
20535;SDS011;10426;49.420;8.390;2023-06-22T04:40:50;13.45;;;8.60;;
20535;SDS011;10426;49.420;8.390;2023-06-22T04:43:20;10.10;;;9.13;;
20535;SDS011;10426;49.420;8.390;2023-06-22T04:45:47;9.43;;;8.38;;
20535;SDS011;10426;49.420;8.390;2023-06-22T04:48:17;9.35;;;8.45;;
20535;SDS011;10426;49.420;8.390;2023-06-22T04:50:44;9.32;;;8.50;;
20535;SDS011;10426;49.420;8.390;2023-06-22T04:53:10;10.48;;;9.27;;
20535;SDS011;10426;49.420;8.390;2023-06-22T04:55:39;11.77;;;10.67;;
20535;SDS011;10426;49.420;8.390;2023-06-22T04:58:11;11.88;;;10.77;;
20535;SDS011;10426;49.420;8.390;2023-06-22T05:00:38;10.82;;;9.82;;
20535;SDS011;10426;49.420;8.390;2023-06-22T05:03:04;12.35;;;10.13;;
20535;SDS011;10426;49.420;8.390;2023-06-22T05:05:32;12.03;;;10.93;;
20535;SDS011;10426;49.420;8.390;2023-06-22T05:08:00;12.38;;;11.10;;
20535;SDS011;10426;49.420;8.390;2023-06-22T05:10:27;12.40;;;11.15;;
20535;SDS011;10426;49.420;8.390;2023-06-22T05:12:55;11.50;;;10.50;;
20535;SDS011;10426;49.420;8.390;2023-06-22T05:15:21;11.60;;;10.60;;
20535;SDS011;10426;49.420;8.390;2023-06-22T05:17:52;11.93;;;10.83;;
20535;SDS011;10426;49.420;8.390;2023-06-22T05:20:18;12.25;;;11.13;;
20535;SDS011;10426;49.420;8.390;2023-06-22T05:22:45;14.00;;;10.25;;
20535;SDS011;10426;49.420;8.390;2023-06-22T05:25:12;11.85;;;10.18;;
20535;SDS011;10426;49.420;8.390;2023-06-22T05:27:39;11.85;;;10.77;;
20535;SDS011;10426;49.420;8.390;2023-06-22T05:30:08;11.48;;;10.27;;
20535;SDS011;10426;49.420;8.390;2023-06-22T05:32:35;13.48;;;10.80;;
20535;SDS011;10426;49.420;8.390;2023-06-22T05:35:02;12.32;;;11.13;;
20535;SDS011;10426;49.420;8.390;2023-06-22T05:37:29;11.77;;;10.57;;
20535;SDS011;10426;49.420;8.390;2023-06-22T05:39:56;11.85;;;10.63;;
20535;SDS011;10426;49.420;8.390;2023-06-22T05:42:23;11.68;;;9.95;;
20535;SDS011;10426;49.420;8.390;2023-06-22T05:44:50;11.43;;;10.38;;
20535;SDS011;10426;49.420;8.390;2023-06-22T05:47:19;12.10;;;10.90;;
20535;SDS011;10426;49.420;8.390;2023-06-22T05:49:46;11.30;;;10.20;;
20535;SDS011;10426;49.420;8.390;2023-06-22T05:52:13;11.50;;;10.50;;
20535;SDS011;10426;49.420;8.390;2023-06-22T05:54:39;12.20;;;11.02;;
20535;SDS011;10426;49.420;8.390;2023-06-22T05:57:07;11.80;;;10.50;;
20535;SDS011;10426;49.420;8.390;2023-06-22T05:59:33;14.00;;;11.10;;
20535;SDS011;10426;49.420;8.390;2023-06-22T06:02:00;11.07;;;10.02;;
20535;SDS011;10426;49.420;8.390;2023-06-22T06:04:28;11.80;;;10.63;;
20535;SDS011;10426;49.420;8.390;2023-06-22T06:06:54;11.90;;;10.38;;
20535;SDS011;10426;49.420;8.390;2023-06-22T06:09:21;11.00;;;9.90;;
20535;SDS011;10426;49.420;8.390;2023-06-22T06:11:48;11.70;;;9.87;;
20535;SDS011;10426;49.420;8.390;2023-06-22T06:14:14;10.18;;;9.05;;
20535;SDS011;10426;49.420;8.390;2023-06-22T06:16:42;9.43;;;8.33;;
20535;SDS011;10426;49.420;8.390;2023-06-22T06:19:09;9.38;;;8.30;;
20535;SDS011;10426;49.420;8.390;2023-06-22T06:21:37;8.95;;;8.15;;
20535;SDS011;10426;49.420;8.390;2023-06-22T06:24:03;7.45;;;6.75;;
20535;SDS011;10426;49.420;8.390;2023-06-22T06:26:30;5.85;;;5.28;;
20535;SDS011;10426;49.420;8.390;2023-06-22T06:28:59;9.15;;;5.40;;
20535;SDS011;10426;49.420;8.390;2023-06-22T06:31:26;5.73;;;5.23;;
20535;SDS011;10426;49.420;8.390;2023-06-22T06:33:53;6.00;;;5.50;;
20535;SDS011;10426;49.420;8.390;2023-06-22T06:36:20;5.95;;;5.40;;
20535;SDS011;10426;49.420;8.390;2023-06-22T06:38:48;5.95;;;4.93;;
20535;SDS011;10426;49.420;8.390;2023-06-22T06:41:15;6.85;;;4.93;;
20535;SDS011;10426;49.420;8.390;2023-06-22T06:43:42;5.60;;;5.10;;
20535;SDS011;10426;49.420;8.390;2023-06-22T06:46:09;5.85;;;5.13;;
20535;SDS011;10426;49.420;8.390;2023-06-22T06:48:35;5.10;;;4.60;;
20535;SDS011;10426;49.420;8.390;2023-06-22T06:51:02;6.68;;;4.70;;
20535;SDS011;10426;49.420;8.390;2023-06-22T06:53:29;5.05;;;4.65;;
20535;SDS011;10426;49.420;8.390;2023-06-22T06:55:56;4.50;;;4.20;;
20535;SDS011;10426;49.420;8.390;2023-06-22T06:58:23;4.95;;;4.47;;
20535;SDS011;10426;49.420;8.390;2023-06-22T07:00:50;4.88;;;4.47;;
20535;SDS011;10426;49.420;8.390;2023-06-22T07:03:16;4.70;;;4.28;;
20535;SDS011;10426;49.420;8.390;2023-06-22T07:05:43;5.72;;;4.53;;
20535;SDS011;10426;49.420;8.390;2023-06-22T07:08:10;5.10;;;4.60;;
20535;SDS011;10426;49.420;8.390;2023-06-22T07:10:36;4.70;;;4.20;;
20535;SDS011;10426;49.420;8.390;2023-06-22T07:13:04;6.20;;;4.53;;
20535;SDS011;10426;49.420;8.390;2023-06-22T07:15:31;4.70;;;4.30;;
20535;SDS011;10426;49.420;8.390;2023-06-22T07:17:58;4.80;;;4.40;;
20535;SDS011;10426;49.420;8.390;2023-06-22T07:20:24;5.25;;;4.40;;
20535;SDS011;10426;49.420;8.390;2023-06-22T07:22:51;4.80;;;4.40;;
20535;SDS011;10426;49.420;8.390;2023-06-22T07:25:18;4.55;;;4.25;;
20535;SDS011;10426;49.420;8.390;2023-06-22T07:27:45;6.53;;;4.30;;
20535;SDS011;10426;49.420;8.390;2023-06-22T07:30:14;4.60;;;4.20;;
20535;SDS011;10426;49.420;8.390;2023-06-22T07:32:40;4.47;;;4.17;;
20535;SDS011;10426;49.420;8.390;2023-06-22T07:35:07;4.60;;;4.10;;
20535;SDS011;10426;49.420;8.390;2023-06-22T07:37:34;4.20;;;3.90;;
20535;SDS011;10426;49.420;8.390;2023-06-22T07:40:00;4.32;;;4.03;;
20535;SDS011;10426;49.420;8.390;2023-06-22T07:42:31;4.25;;;3.92;;
20535;SDS011;10426;49.420;8.390;2023-06-22T07:44:59;4.37;;;4.07;;
20535;SDS011;10426;49.420;8.390;2023-06-22T07:47:27;5.05;;;4.10;;
20535;SDS011;10426;49.420;8.390;2023-06-22T07:49:53;4.67;;;4.03;;
20535;SDS011;10426;49.420;8.390;2023-06-22T07:52:23;4.50;;;4.10;;
20535;SDS011;10426;49.420;8.390;2023-06-22T07:54:50;4.57;;;4.18;;
20535;SDS011;10426;49.420;8.390;2023-06-22T07:57:16;4.55;;;4.22;;
20535;SDS011;10426;49.420;8.390;2023-06-22T07:59:44;4.20;;;3.88;;
20535;SDS011;10426;49.420;8.390;2023-06-22T08:02:10;4.13;;;3.83;;
20535;SDS011;10426;49.420;8.390;2023-06-22T08:04:38;4.90;;;4.40;;
20535;SDS011;10426;49.420;8.390;2023-06-22T08:07:06;4.20;;;3.90;;
20535;SDS011;10426;49.420;8.390;2023-06-22T08:09:33;4.18;;;3.88;;
20535;SDS011;10426;49.420;8.390;2023-06-22T08:11:59;4.43;;;4.00;;
20535;SDS011;10426;49.420;8.390;2023-06-22T08:14:26;4.10;;;3.72;;
20535;SDS011;10426;49.420;8.390;2023-06-22T08:16:53;4.40;;;3.88;;
20535;SDS011;10426;49.420;8.390;2023-06-22T08:19:20;5.47;;;3.90;;
20535;SDS011;10426;49.420;8.390;2023-06-22T08:21:48;5.60;;;4.45;;
20535;SDS011;10426;49.420;8.390;2023-06-22T08:24:15;4.40;;;3.88;;
20535;SDS011;10426;49.420;8.390;2023-06-22T08:26:41;5.85;;;3.85;;
20535;SDS011;10426;49.420;8.390;2023-06-22T08:29:08;4.38;;;3.97;;
20535;SDS011;10426;49.420;8.390;2023-06-22T08:31:36;4.50;;;4.10;;
20535;SDS011;10426;49.420;8.390;2023-06-22T08:34:02;4.53;;;3.78;;
20535;SDS011;10426;49.420;8.390;2023-06-22T08:36:29;4.63;;;3.80;;
20535;SDS011;10426;49.420;8.390;2023-06-22T08:38:59;4.80;;;4.30;;
20535;SDS011;10426;49.420;8.390;2023-06-22T08:41:26;4.18;;;3.88;;
20535;SDS011;10426;49.420;8.390;2023-06-22T08:43:53;4.10;;;3.80;;
20535;SDS011;10426;49.420;8.390;2023-06-22T08:46:19;4.23;;;3.83;;
20535;SDS011;10426;49.420;8.390;2023-06-22T08:48:48;5.63;;;4.07;;
20535;SDS011;10426;49.420;8.390;2023-06-22T08:51:15;4.20;;;3.80;;
20535;SDS011;10426;49.420;8.390;2023-06-22T08:53:42;4.13;;;3.72;;
20535;SDS011;10426;49.420;8.390;2023-06-22T08:56:11;3.83;;;3.63;;
20535;SDS011;10426;49.420;8.390;2023-06-22T08:58:38;4.07;;;3.78;;
20535;SDS011;10426;49.420;8.390;2023-06-22T09:01:05;4.00;;;3.60;;
20535;SDS011;10426;49.420;8.390;2023-06-22T09:03:32;4.57;;;4.18;;
20535;SDS011;10426;49.420;8.390;2023-06-22T09:06:01;5.50;;;3.90;;
20535;SDS011;10426;49.420;8.390;2023-06-22T09:08:28;5.00;;;3.33;;
20535;SDS011;10426;49.420;8.390;2023-06-22T09:10:55;4.07;;;3.67;;
20535;SDS011;10426;49.420;8.390;2023-06-22T09:13:23;4.43;;;3.40;;
20535;SDS011;10426;49.420;8.390;2023-06-22T09:15:49;3.97;;;3.63;;
20535;SDS011;10426;49.420;8.390;2023-06-22T09:18:17;4.20;;;3.72;;
20535;SDS011;10426;49.420;8.390;2023-06-22T09:20:44;3.70;;;3.40;;
20535;SDS011;10426;49.420;8.390;2023-06-22T09:23:11;4.00;;;3.70;;
20535;SDS011;10426;49.420;8.390;2023-06-22T09:25:38;3.65;;;3.35;;
20535;SDS011;10426;49.420;8.390;2023-06-22T09:28:05;3.70;;;3.40;;
20535;SDS011;10426;49.420;8.390;2023-06-22T09:30:33;4.00;;;3.50;;
20535;SDS011;10426;49.420;8.390;2023-06-22T09:33:00;4.25;;;3.80;;
20535;SDS011;10426;49.420;8.390;2023-06-22T09:35:27;3.92;;;3.60;;
20535;SDS011;10426;49.420;8.390;2023-06-22T09:37:54;5.50;;;3.70;;
20535;SDS011;10426;49.420;8.390;2023-06-22T09:40:20;4.35;;;3.72;;
20535;SDS011;10426;49.420;8.390;2023-06-22T09:42:47;4.43;;;4.03;;
20535;SDS011;10426;49.420;8.390;2023-06-22T09:45:14;3.97;;;3.65;;
20535;SDS011;10426;49.420;8.390;2023-06-22T09:47:41;4.35;;;3.92;;
20535;SDS011;10426;49.420;8.390;2023-06-22T09:50:08;6.57;;;3.70;;
20535;SDS011;10426;49.420;8.390;2023-06-22T09:52:35;4.00;;;3.70;;
20535;SDS011;10426;49.420;8.390;2023-06-22T09:55:02;4.43;;;3.70;;
20535;SDS011;10426;49.420;8.390;2023-06-22T09:57:29;5.07;;;3.85;;
20535;SDS011;10426;49.420;8.390;2023-06-22T09:59:56;4.78;;;4.20;;
20535;SDS011;10426;49.420;8.390;2023-06-22T10:02:22;4.50;;;4.10;;
20535;SDS011;10426;49.420;8.390;2023-06-22T10:04:50;6.68;;;3.88;;
20535;SDS011;10426;49.420;8.390;2023-06-22T10:07:17;4.35;;;3.70;;
20535;SDS011;10426;49.420;8.390;2023-06-22T10:09:43;4.72;;;4.00;;
20535;SDS011;10426;49.420;8.390;2023-06-22T10:12:10;5.97;;;3.80;;
20535;SDS011;10426;49.420;8.390;2023-06-22T10:14:36;4.77;;;4.10;;
20535;SDS011;10426;49.420;8.390;2023-06-22T10:17:03;4.10;;;3.78;;
20535;SDS011;10426;49.420;8.390;2023-06-22T10:19:32;5.72;;;3.97;;
20535;SDS011;10426;49.420;8.390;2023-06-22T10:22:00;4.57;;;4.00;;
20535;SDS011;10426;49.420;8.390;2023-06-22T10:24:27;5.32;;;3.75;;
20535;SDS011;10426;49.420;8.390;2023-06-22T10:26:53;8.02;;;4.32;;
20535;SDS011;10426;49.420;8.390;2023-06-22T10:29:20;5.53;;;4.17;;
20535;SDS011;10426;49.420;8.390;2023-06-22T10:31:46;7.80;;;4.22;;
20535;SDS011;10426;49.420;8.390;2023-06-22T10:34:13;6.40;;;4.00;;
20535;SDS011;10426;49.420;8.390;2023-06-22T10:36:40;4.78;;;3.95;;
20535;SDS011;10426;49.420;8.390;2023-06-22T10:39:08;5.97;;;3.97;;
20535;SDS011;10426;49.420;8.390;2023-06-22T10:41:35;7.80;;;4.50;;
20535;SDS011;10426;49.420;8.390;2023-06-22T10:44:02;4.22;;;3.80;;
20535;SDS011;10426;49.420;8.390;2023-06-22T10:46:28;4.50;;;3.80;;
20535;SDS011;10426;49.420;8.390;2023-06-22T10:48:55;5.75;;;3.80;;
20535;SDS011;10426;49.420;8.390;2023-06-22T10:51:24;5.27;;;3.77;;
20535;SDS011;10426;49.420;8.390;2023-06-22T10:53:50;7.15;;;3.72;;
20535;SDS011;10426;49.420;8.390;2023-06-22T10:56:18;5.72;;;3.95;;
20535;SDS011;10426;49.420;8.390;2023-06-22T10:58:45;4.82;;;3.65;;
20535;SDS011;10426;49.420;8.390;2023-06-22T11:01:12;5.18;;;3.97;;
20535;SDS011;10426;49.420;8.390;2023-06-22T11:03:38;4.88;;;3.80;;
20535;SDS011;10426;49.420;8.390;2023-06-22T11:06:05;4.38;;;3.83;;
20535;SDS011;10426;49.420;8.390;2023-06-22T11:08:32;5.13;;;3.60;;
20535;SDS011;10426;49.420;8.390;2023-06-22T11:10:58;5.88;;;4.03;;
20535;SDS011;10426;49.420;8.390;2023-06-22T11:13:26;5.13;;;3.78;;
20535;SDS011;10426;49.420;8.390;2023-06-22T11:15:53;5.35;;;3.72;;
20535;SDS011;10426;49.420;8.390;2023-06-22T11:18:19;5.30;;;3.93;;
20535;SDS011;10426;49.420;8.390;2023-06-22T11:20:48;5.38;;;4.40;;
20535;SDS011;10426;49.420;8.390;2023-06-22T11:23:15;6.20;;;4.35;;
20535;SDS011;10426;49.420;8.390;2023-06-22T11:25:41;5.10;;;3.97;;
20535;SDS011;10426;49.420;8.390;2023-06-22T11:28:08;6.00;;;4.13;;
20535;SDS011;10426;49.420;8.390;2023-06-22T11:30:36;4.78;;;3.80;;
20535;SDS011;10426;49.420;8.390;2023-06-22T11:33:03;7.18;;;3.90;;
20535;SDS011;10426;49.420;8.390;2023-06-22T11:35:30;5.00;;;4.15;;
20535;SDS011;10426;49.420;8.390;2023-06-22T11:37:56;9.05;;;4.30;;
20535;SDS011;10426;49.420;8.390;2023-06-22T11:40:23;10.17;;;4.20;;
20535;SDS011;10426;49.420;8.390;2023-06-22T11:42:50;6.55;;;4.40;;
20535;SDS011;10426;49.420;8.390;2023-06-22T11:45:17;7.75;;;4.10;;
20535;SDS011;10426;49.420;8.390;2023-06-22T11:47:45;7.57;;;4.15;;
20535;SDS011;10426;49.420;8.390;2023-06-22T11:50:12;7.65;;;4.18;;
20535;SDS011;10426;49.420;8.390;2023-06-22T11:52:38;5.22;;;3.90;;
20535;SDS011;10426;49.420;8.390;2023-06-22T11:55:05;7.93;;;4.70;;
20535;SDS011;10426;49.420;8.390;2023-06-22T11:57:33;8.50;;;4.20;;
20535;SDS011;10426;49.420;8.390;2023-06-22T12:00:00;5.80;;;4.15;;
20535;SDS011;10426;49.420;8.390;2023-06-22T12:02:26;5.05;;;3.80;;
20535;SDS011;10426;49.420;8.390;2023-06-22T12:04:54;6.47;;;4.13;;
20535;SDS011;10426;49.420;8.390;2023-06-22T12:07:21;6.80;;;3.90;;
20535;SDS011;10426;49.420;8.390;2023-06-22T12:09:48;6.33;;;3.83;;
20535;SDS011;10426;49.420;8.390;2023-06-22T12:12:15;6.45;;;4.40;;
20535;SDS011;10426;49.420;8.390;2023-06-22T12:14:41;8.10;;;4.15;;
20535;SDS011;10426;49.420;8.390;2023-06-22T12:17:08;6.75;;;4.03;;
20535;SDS011;10426;49.420;8.390;2023-06-22T12:19:35;6.90;;;4.00;;
20535;SDS011;10426;49.420;8.390;2023-06-22T12:22:03;8.18;;;3.90;;
20535;SDS011;10426;49.420;8.390;2023-06-22T12:24:29;6.30;;;4.00;;
20535;SDS011;10426;49.420;8.390;2023-06-22T12:26:56;5.50;;;3.83;;
20535;SDS011;10426;49.420;8.390;2023-06-22T12:29:23;5.45;;;4.00;;
20535;SDS011;10426;49.420;8.390;2023-06-22T12:31:49;6.43;;;3.70;;
20535;SDS011;10426;49.420;8.390;2023-06-22T12:34:16;6.20;;;3.78;;
20535;SDS011;10426;49.420;8.390;2023-06-22T12:36:42;7.22;;;4.55;;
20535;SDS011;10426;49.420;8.390;2023-06-22T12:39:11;7.03;;;4.07;;
20535;SDS011;10426;49.420;8.390;2023-06-22T12:41:37;6.38;;;3.88;;
20535;SDS011;10426;49.420;8.390;2023-06-22T12:44:04;6.15;;;3.90;;
20535;SDS011;10426;49.420;8.390;2023-06-22T12:46:31;7.60;;;4.20;;
20535;SDS011;10426;49.420;8.390;2023-06-22T12:49:02;7.32;;;3.80;;
20535;SDS011;10426;49.420;8.390;2023-06-22T12:51:30;10.00;;;4.10;;
20535;SDS011;10426;49.420;8.390;2023-06-22T12:53:56;7.28;;;4.03;;
20535;SDS011;10426;49.420;8.390;2023-06-22T12:56:24;5.82;;;3.90;;
20535;SDS011;10426;49.420;8.390;2023-06-22T12:58:51;5.80;;;3.92;;
20535;SDS011;10426;49.420;8.390;2023-06-22T13:01:18;6.93;;;3.80;;
20535;SDS011;10426;49.420;8.390;2023-06-22T13:03:44;6.60;;;4.20;;
20535;SDS011;10426;49.420;8.390;2023-06-22T13:06:11;8.45;;;4.43;;
20535;SDS011;10426;49.420;8.390;2023-06-22T13:08:37;8.85;;;4.00;;
20535;SDS011;10426;49.420;8.390;2023-06-22T13:11:04;6.97;;;4.20;;
20535;SDS011;10426;49.420;8.390;2023-06-22T13:13:32;6.70;;;4.03;;
20535;SDS011;10426;49.420;8.390;2023-06-22T13:15:59;6.15;;;3.80;;
20535;SDS011;10426;49.420;8.390;2023-06-22T13:18:26;6.78;;;4.30;;
20535;SDS011;10426;49.420;8.390;2023-06-22T13:20:52;5.88;;;3.80;;
20535;SDS011;10426;49.420;8.390;2023-06-22T13:23:20;6.78;;;4.00;;
20535;SDS011;10426;49.420;8.390;2023-06-22T13:25:46;6.43;;;3.80;;
20535;SDS011;10426;49.420;8.390;2023-06-22T13:28:13;9.07;;;4.05;;
20535;SDS011;10426;49.420;8.390;2023-06-22T13:30:42;8.60;;;4.10;;
20535;SDS011;10426;49.420;8.390;2023-06-22T13:33:11;6.63;;;3.83;;
20535;SDS011;10426;49.420;8.390;2023-06-22T13:35:38;6.25;;;3.90;;
20535;SDS011;10426;49.420;8.390;2023-06-22T13:38:04;8.73;;;4.50;;
20535;SDS011;10426;49.420;8.390;2023-06-22T13:40:31;8.50;;;3.92;;
20535;SDS011;10426;49.420;8.390;2023-06-22T13:42:58;6.97;;;3.83;;
20535;SDS011;10426;49.420;8.390;2023-06-22T13:45:25;5.72;;;3.88;;
20535;SDS011;10426;49.420;8.390;2023-06-22T13:47:53;7.27;;;4.20;;
20535;SDS011;10426;49.420;8.390;2023-06-22T13:50:19;8.32;;;4.20;;
20535;SDS011;10426;49.420;8.390;2023-06-22T13:52:46;8.25;;;4.40;;
20535;SDS011;10426;49.420;8.390;2023-06-22T13:55:12;8.35;;;4.20;;
20535;SDS011;10426;49.420;8.390;2023-06-22T13:57:40;8.48;;;4.28;;
20535;SDS011;10426;49.420;8.390;2023-06-22T14:00:07;6.63;;;4.20;;
20535;SDS011;10426;49.420;8.390;2023-06-22T14:02:34;5.00;;;4.00;;
20535;SDS011;10426;49.420;8.390;2023-06-22T14:05:02;8.07;;;4.13;;
20535;SDS011;10426;49.420;8.390;2023-06-22T14:07:28;9.80;;;4.65;;
20535;SDS011;10426;49.420;8.390;2023-06-22T14:09:55;7.25;;;4.53;;
20535;SDS011;10426;49.420;8.390;2023-06-22T14:12:23;9.80;;;4.47;;
20535;SDS011;10426;49.420;8.390;2023-06-22T14:14:49;7.38;;;4.53;;
20535;SDS011;10426;49.420;8.390;2023-06-22T14:17:16;7.53;;;4.40;;
20535;SDS011;10426;49.420;8.390;2023-06-22T14:19:43;7.03;;;4.70;;
20535;SDS011;10426;49.420;8.390;2023-06-22T14:22:11;7.53;;;4.67;;
20535;SDS011;10426;49.420;8.390;2023-06-22T14:24:37;7.70;;;4.60;;
20535;SDS011;10426;49.420;8.390;2023-06-22T14:27:04;9.07;;;4.70;;
20535;SDS011;10426;49.420;8.390;2023-06-22T14:29:33;11.20;;;5.00;;
20535;SDS011;10426;49.420;8.390;2023-06-22T14:32:00;7.70;;;4.90;;
20535;SDS011;10426;49.420;8.390;2023-06-22T14:34:27;8.37;;;4.90;;
20535;SDS011;10426;49.420;8.390;2023-06-22T14:36:53;7.40;;;4.95;;
20535;SDS011;10426;49.420;8.390;2023-06-22T14:39:21;10.20;;;5.10;;
20535;SDS011;10426;49.420;8.390;2023-06-22T14:41:48;9.10;;;4.70;;
20535;SDS011;10426;49.420;8.390;2023-06-22T14:44:14;6.22;;;4.85;;
20535;SDS011;10426;49.420;8.390;2023-06-22T14:46:41;7.77;;;4.57;;
20535;SDS011;10426;49.420;8.390;2023-06-22T14:49:08;7.55;;;4.38;;
20535;SDS011;10426;49.420;8.390;2023-06-22T14:51:34;8.95;;;4.63;;
20535;SDS011;10426;49.420;8.390;2023-06-22T14:54:01;10.50;;;4.60;;
20535;SDS011;10426;49.420;8.390;2023-06-22T14:56:29;8.57;;;4.50;;
20535;SDS011;10426;49.420;8.390;2023-06-22T14:58:55;9.45;;;4.82;;
20535;SDS011;10426;49.420;8.390;2023-06-22T15:01:22;7.78;;;4.50;;